sensor_id;sensor_type;location;lat;lon;timestamp;P1;durP1;ratioP1;P2;durP2;ratioP2
65835;SDS011;52595;51.608;7.216;2023-02-28T00:00:07;9.15;;;5.20;;
65835;SDS011;52595;51.608;7.216;2023-02-28T00:02:42;11.07;;;5.05;;
65835;SDS011;52595;51.608;7.216;2023-02-28T00:05:08;8.75;;;5.20;;
65835;SDS011;52595;51.608;7.216;2023-02-28T00:07:35;10.27;;;5.20;;
65835;SDS011;52595;51.608;7.216;2023-02-28T00:10:02;10.10;;;5.00;;
65835;SDS011;52595;51.608;7.216;2023-02-28T00:12:28;10.23;;;4.53;;
65835;SDS011;52595;51.608;7.216;2023-02-28T00:14:54;8.85;;;5.07;;
65835;SDS011;52595;51.608;7.216;2023-02-28T00:17:20;9.80;;;4.60;;
65835;SDS011;52595;51.608;7.216;2023-02-28T00:19:49;10.35;;;5.07;;
65835;SDS011;52595;51.608;7.216;2023-02-28T00:22:17;10.63;;;4.80;;
65835;SDS011;52595;51.608;7.216;2023-02-28T00:24:44;7.55;;;4.45;;
65835;SDS011;52595;51.608;7.216;2023-02-28T00:27:09;8.82;;;4.47;;
65835;SDS011;52595;51.608;7.216;2023-02-28T00:29:35;7.90;;;4.10;;
65835;SDS011;52595;51.608;7.216;2023-02-28T00:32:01;7.43;;;4.22;;
65835;SDS011;52595;51.608;7.216;2023-02-28T00:34:27;8.70;;;4.30;;
65835;SDS011;52595;51.608;7.216;2023-02-28T00:36:53;7.38;;;4.20;;
65835;SDS011;52595;51.608;7.216;2023-02-28T00:39:19;6.85;;;3.90;;
65835;SDS011;52595;51.608;7.216;2023-02-28T00:41:45;9.10;;;4.13;;
65835;SDS011;52595;51.608;7.216;2023-02-28T00:44:10;6.20;;;3.38;;
65835;SDS011;52595;51.608;7.216;2023-02-28T00:46:35;9.88;;;4.07;;
65835;SDS011;52595;51.608;7.216;2023-02-28T00:49:01;6.85;;;3.38;;
65835;SDS011;52595;51.608;7.216;2023-02-28T00:51:26;5.85;;;3.60;;
65835;SDS011;52595;51.608;7.216;2023-02-28T00:53:51;7.63;;;3.60;;
65835;SDS011;52595;51.608;7.216;2023-02-28T00:56:17;8.75;;;3.53;;
65835;SDS011;52595;51.608;7.216;2023-02-28T00:58:42;6.43;;;3.50;;
65835;SDS011;52595;51.608;7.216;2023-02-28T01:01:08;6.75;;;3.65;;
65835;SDS011;52595;51.608;7.216;2023-02-28T01:03:33;6.97;;;3.38;;
65835;SDS011;52595;51.608;7.216;2023-02-28T01:05:59;6.45;;;3.40;;
65835;SDS011;52595;51.608;7.216;2023-02-28T01:08:24;6.85;;;3.90;;
65835;SDS011;52595;51.608;7.216;2023-02-28T01:10:51;6.20;;;3.38;;
65835;SDS011;52595;51.608;7.216;2023-02-28T01:13:17;7.60;;;3.95;;
65835;SDS011;52595;51.608;7.216;2023-02-28T01:15:48;6.65;;;3.42;;
65835;SDS011;52595;51.608;7.216;2023-02-28T01:18:16;6.82;;;3.78;;
65835;SDS011;52595;51.608;7.216;2023-02-28T01:20:41;6.30;;;3.50;;
65835;SDS011;52595;51.608;7.216;2023-02-28T01:23:07;5.18;;;3.10;;
65835;SDS011;52595;51.608;7.216;2023-02-28T01:25:34;7.63;;;3.30;;
65835;SDS011;52595;51.608;7.216;2023-02-28T01:28:01;5.40;;;3.13;;
65835;SDS011;52595;51.608;7.216;2023-02-28T01:30:26;4.75;;;2.85;;
65835;SDS011;52595;51.608;7.216;2023-02-28T01:32:52;7.43;;;3.10;;
65835;SDS011;52595;51.608;7.216;2023-02-28T01:35:18;5.82;;;2.90;;
65835;SDS011;52595;51.608;7.216;2023-02-28T01:37:44;6.95;;;3.63;;
65835;SDS011;52595;51.608;7.216;2023-02-28T01:40:09;5.28;;;2.80;;
65835;SDS011;52595;51.608;7.216;2023-02-28T01:42:35;7.13;;;3.17;;
65835;SDS011;52595;51.608;7.216;2023-02-28T01:45:18;4.90;;;2.55;;
65835;SDS011;52595;51.608;7.216;2023-02-28T01:47:44;5.22;;;2.90;;
65835;SDS011;52595;51.608;7.216;2023-02-28T01:50:12;4.45;;;2.60;;
65835;SDS011;52595;51.608;7.216;2023-02-28T01:52:44;4.85;;;2.88;;
65835;SDS011;52595;51.608;7.216;2023-02-28T01:55:11;7.28;;;3.40;;
65835;SDS011;52595;51.608;7.216;2023-02-28T01:57:43;6.15;;;3.25;;
65835;SDS011;52595;51.608;7.216;2023-02-28T02:00:15;4.70;;;3.10;;
65835;SDS011;52595;51.608;7.216;2023-02-28T02:02:43;6.30;;;3.30;;
65835;SDS011;52595;51.608;7.216;2023-02-28T02:05:15;5.40;;;2.90;;
65835;SDS011;52595;51.608;7.216;2023-02-28T02:07:44;6.65;;;3.05;;
65835;SDS011;52595;51.608;7.216;2023-02-28T02:18:57;7.47;;;3.00;;
65835;SDS011;52595;51.608;7.216;2023-02-28T02:34:56;6.78;;;2.85;;
65835;SDS011;52595;51.608;7.216;2023-02-28T02:37:40;4.85;;;2.72;;
65835;SDS011;52595;51.608;7.216;2023-02-28T02:40:16;7.85;;;3.00;;
65835;SDS011;52595;51.608;7.216;2023-02-28T02:45:30;6.63;;;2.72;;
65835;SDS011;52595;51.608;7.216;2023-02-28T02:48:03;5.57;;;2.80;;
65835;SDS011;52595;51.608;7.216;2023-02-28T02:50:37;5.28;;;2.65;;
65835;SDS011;52595;51.608;7.216;2023-02-28T02:53:34;5.20;;;2.60;;
65835;SDS011;52595;51.608;7.216;2023-02-28T02:56:04;5.40;;;2.53;;
65835;SDS011;52595;51.608;7.216;2023-02-28T02:58:33;4.78;;;2.50;;
65835;SDS011;52595;51.608;7.216;2023-02-28T03:01:07;4.05;;;2.30;;
65835;SDS011;52595;51.608;7.216;2023-02-28T03:03:35;4.28;;;2.65;;
65835;SDS011;52595;51.608;7.216;2023-02-28T03:06:02;5.28;;;2.50;;
65835;SDS011;52595;51.608;7.216;2023-02-28T03:08:28;5.45;;;2.70;;
65835;SDS011;52595;51.608;7.216;2023-02-28T03:11:02;6.57;;;2.63;;
65835;SDS011;52595;51.608;7.216;2023-02-28T03:19:18;4.65;;;2.65;;
65835;SDS011;52595;51.608;7.216;2023-02-28T03:30:58;5.97;;;2.80;;
65835;SDS011;52595;51.608;7.216;2023-02-28T03:33:38;7.70;;;2.83;;
65835;SDS011;52595;51.608;7.216;2023-02-28T03:36:14;5.40;;;2.80;;
65835;SDS011;52595;51.608;7.216;2023-02-28T03:38:45;4.45;;;2.47;;
65835;SDS011;52595;51.608;7.216;2023-02-28T03:41:21;5.35;;;2.65;;
65835;SDS011;52595;51.608;7.216;2023-02-28T03:43:53;5.72;;;2.80;;
65835;SDS011;52595;51.608;7.216;2023-02-28T03:46:25;5.05;;;2.80;;
65835;SDS011;52595;51.608;7.216;2023-02-28T03:49:16;4.20;;;2.50;;
65835;SDS011;52595;51.608;7.216;2023-02-28T03:51:42;5.50;;;2.80;;
65835;SDS011;52595;51.608;7.216;2023-02-28T03:54:10;6.30;;;2.70;;
65835;SDS011;52595;51.608;7.216;2023-02-28T04:01:49;6.70;;;2.92;;
65835;SDS011;52595;51.608;7.216;2023-02-28T04:04:16;6.75;;;3.00;;
65835;SDS011;52595;51.608;7.216;2023-02-28T04:06:43;5.70;;;2.90;;
65835;SDS011;52595;51.608;7.216;2023-02-28T04:09:09;5.97;;;2.78;;
65835;SDS011;52595;51.608;7.216;2023-02-28T04:14:21;5.70;;;2.80;;
65835;SDS011;52595;51.608;7.216;2023-02-28T04:16:47;3.67;;;2.40;;
65835;SDS011;52595;51.608;7.216;2023-02-28T04:19:13;6.95;;;2.58;;
65835;SDS011;52595;51.608;7.216;2023-02-28T04:21:44;5.85;;;2.65;;
65835;SDS011;52595;51.608;7.216;2023-02-28T04:24:14;4.57;;;2.38;;
65835;SDS011;52595;51.608;7.216;2023-02-28T04:26:49;6.00;;;2.70;;
65835;SDS011;52595;51.608;7.216;2023-02-28T04:29:20;5.30;;;2.63;;
65835;SDS011;52595;51.608;7.216;2023-02-28T04:31:48;5.90;;;2.70;;
65835;SDS011;52595;51.608;7.216;2023-02-28T04:34:13;4.78;;;2.90;;
65835;SDS011;52595;51.608;7.216;2023-02-28T04:36:39;6.95;;;3.00;;
65835;SDS011;52595;51.608;7.216;2023-02-28T04:39:05;5.57;;;2.88;;
65835;SDS011;52595;51.608;7.216;2023-02-28T04:41:30;5.55;;;3.03;;
65835;SDS011;52595;51.608;7.216;2023-02-28T04:43:56;6.78;;;3.10;;
65835;SDS011;52595;51.608;7.216;2023-02-28T04:46:22;6.10;;;2.80;;
65835;SDS011;52595;51.608;7.216;2023-02-28T04:48:47;5.30;;;3.35;;
65835;SDS011;52595;51.608;7.216;2023-02-28T04:51:14;5.95;;;3.35;;
65835;SDS011;52595;51.608;7.216;2023-02-28T04:53:42;5.80;;;3.10;;
65835;SDS011;52595;51.608;7.216;2023-02-28T04:56:08;5.80;;;3.13;;
65835;SDS011;52595;51.608;7.216;2023-02-28T04:58:36;5.50;;;3.10;;
65835;SDS011;52595;51.608;7.216;2023-02-28T05:01:07;5.50;;;3.00;;
65835;SDS011;52595;51.608;7.216;2023-02-28T05:03:41;5.78;;;3.15;;
65835;SDS011;52595;51.608;7.216;2023-02-28T05:06:08;6.00;;;3.28;;
65835;SDS011;52595;51.608;7.216;2023-02-28T05:08:34;5.70;;;3.13;;
65835;SDS011;52595;51.608;7.216;2023-02-28T05:10:59;6.15;;;3.25;;
65835;SDS011;52595;51.608;7.216;2023-02-28T05:13:26;6.78;;;3.40;;
65835;SDS011;52595;51.608;7.216;2023-02-28T05:15:53;7.35;;;3.38;;
65835;SDS011;52595;51.608;7.216;2023-02-28T05:18:18;7.78;;;3.95;;
65835;SDS011;52595;51.608;7.216;2023-02-28T05:20:44;7.22;;;3.65;;
65835;SDS011;52595;51.608;7.216;2023-02-28T05:23:13;5.97;;;3.75;;
65835;SDS011;52595;51.608;7.216;2023-02-28T05:25:39;11.02;;;3.55;;
65835;SDS011;52595;51.608;7.216;2023-02-28T05:28:05;6.38;;;3.47;;
65835;SDS011;52595;51.608;7.216;2023-02-28T05:30:31;8.52;;;3.72;;
65835;SDS011;52595;51.608;7.216;2023-02-28T05:32:57;7.88;;;3.75;;
65835;SDS011;52595;51.608;7.216;2023-02-28T05:35:23;6.82;;;3.75;;
65835;SDS011;52595;51.608;7.216;2023-02-28T05:37:49;6.55;;;3.67;;
65835;SDS011;52595;51.608;7.216;2023-02-28T05:40:14;6.97;;;3.67;;
65835;SDS011;52595;51.608;7.216;2023-02-28T05:42:40;5.40;;;3.30;;
65835;SDS011;52595;51.608;7.216;2023-02-28T05:45:06;8.02;;;3.70;;
65835;SDS011;52595;51.608;7.216;2023-02-28T05:47:33;5.85;;;3.55;;
65835;SDS011;52595;51.608;7.216;2023-02-28T05:49:59;7.28;;;3.70;;
65835;SDS011;52595;51.608;7.216;2023-02-28T05:52:25;7.38;;;3.83;;
65835;SDS011;52595;51.608;7.216;2023-02-28T05:54:50;8.85;;;3.53;;
65835;SDS011;52595;51.608;7.216;2023-02-28T05:57:16;8.48;;;3.70;;
65835;SDS011;52595;51.608;7.216;2023-02-28T05:59:41;8.00;;;3.83;;
65835;SDS011;52595;51.608;7.216;2023-02-28T06:02:14;7.65;;;4.13;;
65835;SDS011;52595;51.608;7.216;2023-02-28T06:04:42;8.85;;;3.88;;
65835;SDS011;52595;51.608;7.216;2023-02-28T06:07:08;7.22;;;3.85;;
65835;SDS011;52595;51.608;7.216;2023-02-28T06:09:34;7.45;;;4.10;;
65835;SDS011;52595;51.608;7.216;2023-02-28T06:12:01;7.00;;;4.25;;
65835;SDS011;52595;51.608;7.216;2023-02-28T06:14:31;8.25;;;4.10;;
65835;SDS011;52595;51.608;7.216;2023-02-28T06:16:57;7.80;;;4.05;;
65835;SDS011;52595;51.608;7.216;2023-02-28T06:19:23;7.80;;;4.22;;
65835;SDS011;52595;51.608;7.216;2023-02-28T06:21:52;7.97;;;4.57;;
65835;SDS011;52595;51.608;7.216;2023-02-28T06:24:21;8.20;;;4.15;;
65835;SDS011;52595;51.608;7.216;2023-02-28T06:26:48;8.50;;;4.47;;
65835;SDS011;52595;51.608;7.216;2023-02-28T06:29:13;7.15;;;4.47;;
65835;SDS011;52595;51.608;7.216;2023-02-28T06:31:43;8.80;;;4.15;;
65835;SDS011;52595;51.608;7.216;2023-02-28T06:34:10;7.63;;;4.20;;
65835;SDS011;52595;51.608;7.216;2023-02-28T06:36:38;7.82;;;4.22;;
65835;SDS011;52595;51.608;7.216;2023-02-28T06:39:05;8.07;;;4.30;;
65835;SDS011;52595;51.608;7.216;2023-02-28T06:41:30;6.93;;;3.90;;
65835;SDS011;52595;51.608;7.216;2023-02-28T06:43:56;8.90;;;4.22;;
65835;SDS011;52595;51.608;7.216;2023-02-28T06:46:22;8.75;;;4.10;;
65835;SDS011;52595;51.608;7.216;2023-02-28T06:48:48;7.50;;;4.20;;
65835;SDS011;52595;51.608;7.216;2023-02-28T06:51:15;7.40;;;4.30;;
65835;SDS011;52595;51.608;7.216;2023-02-28T06:53:41;8.57;;;4.10;;
65835;SDS011;52595;51.608;7.216;2023-02-28T06:56:11;7.82;;;4.07;;
65835;SDS011;52595;51.608;7.216;2023-02-28T06:58:38;7.07;;;4.20;;
65835;SDS011;52595;51.608;7.216;2023-02-28T07:01:04;7.97;;;4.15;;
65835;SDS011;52595;51.608;7.216;2023-02-28T07:03:31;8.07;;;4.20;;
65835;SDS011;52595;51.608;7.216;2023-02-28T07:05:57;6.57;;;3.60;;
65835;SDS011;52595;51.608;7.216;2023-02-28T07:08:23;6.57;;;3.92;;
65835;SDS011;52595;51.608;7.216;2023-02-28T07:10:51;7.88;;;4.47;;
65835;SDS011;52595;51.608;7.216;2023-02-28T07:13:20;7.65;;;4.05;;
65835;SDS011;52595;51.608;7.216;2023-02-28T07:15:52;8.05;;;4.10;;
65835;SDS011;52595;51.608;7.216;2023-02-28T07:18:22;7.07;;;3.97;;
65835;SDS011;52595;51.608;7.216;2023-02-28T07:20:47;8.13;;;3.88;;
65835;SDS011;52595;51.608;7.216;2023-02-28T07:23:12;6.63;;;3.78;;
65835;SDS011;52595;51.608;7.216;2023-02-28T07:25:38;6.95;;;4.05;;
65835;SDS011;52595;51.608;7.216;2023-02-28T07:28:04;8.43;;;4.30;;
65835;SDS011;52595;51.608;7.216;2023-02-28T07:30:29;6.78;;;3.80;;
65835;SDS011;52595;51.608;7.216;2023-02-28T07:32:55;6.65;;;3.78;;
65835;SDS011;52595;51.608;7.216;2023-02-28T07:35:22;6.40;;;3.90;;
65835;SDS011;52595;51.608;7.216;2023-02-28T07:37:47;6.85;;;3.50;;
65835;SDS011;52595;51.608;7.216;2023-02-28T07:40:13;7.47;;;4.13;;
65835;SDS011;52595;51.608;7.216;2023-02-28T07:42:40;8.07;;;4.10;;
65835;SDS011;52595;51.608;7.216;2023-02-28T07:45:06;9.27;;;3.90;;
65835;SDS011;52595;51.608;7.216;2023-02-28T07:47:33;7.13;;;3.70;;
65835;SDS011;52595;51.608;7.216;2023-02-28T07:49:58;7.18;;;3.90;;
65835;SDS011;52595;51.608;7.216;2023-02-28T07:52:24;8.15;;;4.25;;
65835;SDS011;52595;51.608;7.216;2023-02-28T07:54:50;6.80;;;3.97;;
65835;SDS011;52595;51.608;7.216;2023-02-28T07:57:16;7.97;;;4.15;;
65835;SDS011;52595;51.608;7.216;2023-02-28T07:59:42;9.55;;;4.18;;
65835;SDS011;52595;51.608;7.216;2023-02-28T08:02:12;7.85;;;4.03;;
65835;SDS011;52595;51.608;7.216;2023-02-28T08:04:39;9.73;;;4.28;;
65835;SDS011;52595;51.608;7.216;2023-02-28T08:07:05;7.68;;;4.05;;
65835;SDS011;52595;51.608;7.216;2023-02-28T08:09:30;6.55;;;4.18;;
65835;SDS011;52595;51.608;7.216;2023-02-28T08:11:55;8.63;;;3.80;;
65835;SDS011;52595;51.608;7.216;2023-02-28T08:14:21;6.53;;;3.83;;
65835;SDS011;52595;51.608;7.216;2023-02-28T08:16:46;7.30;;;4.05;;
65835;SDS011;52595;51.608;7.216;2023-02-28T08:19:12;7.10;;;4.10;;
65835;SDS011;52595;51.608;7.216;2023-02-28T08:21:37;6.60;;;3.95;;
65835;SDS011;52595;51.608;7.216;2023-02-28T08:24:02;7.55;;;3.85;;
65835;SDS011;52595;51.608;7.216;2023-02-28T08:26:28;5.60;;;3.53;;
65835;SDS011;52595;51.608;7.216;2023-02-28T08:28:53;6.80;;;3.67;;
65835;SDS011;52595;51.608;7.216;2023-02-28T08:31:19;8.35;;;4.25;;
65835;SDS011;52595;51.608;7.216;2023-02-28T08:33:44;7.80;;;4.28;;
65835;SDS011;52595;51.608;7.216;2023-02-28T08:36:10;9.65;;;4.00;;
65835;SDS011;52595;51.608;7.216;2023-02-28T08:38:37;8.60;;;4.05;;
65835;SDS011;52595;51.608;7.216;2023-02-28T08:41:03;7.50;;;4.15;;
65835;SDS011;52595;51.608;7.216;2023-02-28T08:43:32;6.47;;;3.65;;
65835;SDS011;52595;51.608;7.216;2023-02-28T08:45:58;7.30;;;3.75;;
65835;SDS011;52595;51.608;7.216;2023-02-28T08:48:25;7.13;;;3.90;;
65835;SDS011;52595;51.608;7.216;2023-02-28T08:50:58;7.35;;;3.95;;
65835;SDS011;52595;51.608;7.216;2023-02-28T08:53:28;9.02;;;4.30;;
65835;SDS011;52595;51.608;7.216;2023-02-28T08:56:00;6.25;;;3.72;;
65835;SDS011;52595;51.608;7.216;2023-02-28T08:58:45;7.20;;;4.00;;
65835;SDS011;52595;51.608;7.216;2023-02-28T09:01:13;6.90;;;3.95;;
65835;SDS011;52595;51.608;7.216;2023-02-28T09:03:43;5.85;;;3.90;;
65835;SDS011;52595;51.608;7.216;2023-02-28T09:06:09;6.03;;;3.45;;
65835;SDS011;52595;51.608;7.216;2023-02-28T09:08:35;6.50;;;3.85;;
65835;SDS011;52595;51.608;7.216;2023-02-28T09:11:01;8.45;;;3.55;;
65835;SDS011;52595;51.608;7.216;2023-02-28T09:13:28;5.47;;;3.70;;
65835;SDS011;52595;51.608;7.216;2023-02-28T09:15:53;6.15;;;3.80;;
65835;SDS011;52595;51.608;7.216;2023-02-28T09:18:20;5.28;;;3.42;;
65835;SDS011;52595;51.608;7.216;2023-02-28T09:20:45;5.97;;;3.60;;
65835;SDS011;52595;51.608;7.216;2023-02-28T09:23:12;8.73;;;3.72;;
65835;SDS011;52595;51.608;7.216;2023-02-28T09:25:38;5.93;;;3.20;;
65835;SDS011;52595;51.608;7.216;2023-02-28T09:28:10;6.38;;;3.47;;
65835;SDS011;52595;51.608;7.216;2023-02-28T09:30:36;5.50;;;3.28;;
65835;SDS011;52595;51.608;7.216;2023-02-28T09:33:02;5.43;;;3.00;;
65835;SDS011;52595;51.608;7.216;2023-02-28T09:35:28;4.90;;;2.90;;
65835;SDS011;52595;51.608;7.216;2023-02-28T09:37:55;7.57;;;3.00;;
65835;SDS011;52595;51.608;7.216;2023-02-28T09:40:24;5.03;;;2.90;;
65835;SDS011;52595;51.608;7.216;2023-02-28T09:42:52;4.63;;;2.80;;
65835;SDS011;52595;51.608;7.216;2023-02-28T09:45:24;5.82;;;2.80;;
65835;SDS011;52595;51.608;7.216;2023-02-28T09:48:03;6.88;;;3.08;;
65835;SDS011;52595;51.608;7.216;2023-02-28T09:50:38;4.63;;;2.80;;
65835;SDS011;52595;51.608;7.216;2023-02-28T09:53:25;5.07;;;2.50;;
65835;SDS011;52595;51.608;7.216;2023-02-28T09:55:59;5.13;;;2.80;;
65835;SDS011;52595;51.608;7.216;2023-02-28T10:06:46;7.43;;;3.70;;
65835;SDS011;52595;51.608;7.216;2023-02-28T10:11:50;8.23;;;3.65;;
65835;SDS011;52595;51.608;7.216;2023-02-28T10:14:19;8.10;;;3.10;;
65835;SDS011;52595;51.608;7.216;2023-02-28T10:16:52;6.65;;;2.80;;
65835;SDS011;52595;51.608;7.216;2023-02-28T10:22:20;5.13;;;2.80;;
65835;SDS011;52595;51.608;7.216;2023-02-28T10:24:48;8.48;;;3.17;;
65835;SDS011;52595;51.608;7.216;2023-02-28T10:29:57;3.70;;;2.08;;
65835;SDS011;52595;51.608;7.216;2023-02-28T10:37:39;4.55;;;2.67;;
65835;SDS011;52595;51.608;7.216;2023-02-28T10:40:06;4.00;;;2.72;;
65835;SDS011;52595;51.608;7.216;2023-02-28T10:45:23;4.38;;;2.70;;
65835;SDS011;52595;51.608;7.216;2023-02-28T10:47:57;4.57;;;2.55;;
65835;SDS011;52595;51.608;7.216;2023-02-28T10:50:29;3.55;;;2.10;;
65835;SDS011;52595;51.608;7.216;2023-02-28T11:06:57;4.38;;;2.22;;
65835;SDS011;52595;51.608;7.216;2023-02-28T11:09:32;4.65;;;2.20;;
65835;SDS011;52595;51.608;7.216;2023-02-28T11:12:04;4.25;;;2.08;;
65835;SDS011;52595;51.608;7.216;2023-02-28T11:14:49;3.53;;;2.10;;
65835;SDS011;52595;51.608;7.216;2023-02-28T11:17:27;3.38;;;2.20;;
65835;SDS011;52595;51.608;7.216;2023-02-28T11:20:04;4.35;;;2.40;;
65835;SDS011;52595;51.608;7.216;2023-02-28T11:22:36;2.75;;;2.15;;
65835;SDS011;52595;51.608;7.216;2023-02-28T11:25:37;4.30;;;2.40;;
65835;SDS011;52595;51.608;7.216;2023-02-28T11:27:59;4.15;;;2.80;;
65835;SDS011;52595;51.608;7.216;2023-02-28T11:32:56;4.25;;;2.53;;
65835;SDS011;52595;51.608;7.216;2023-02-28T11:35:26;4.50;;;2.40;;
65835;SDS011;52595;51.608;7.216;2023-02-28T11:37:59;3.80;;;2.47;;
65835;SDS011;52595;51.608;7.216;2023-02-28T11:46:03;4.13;;;2.30;;
65835;SDS011;52595;51.608;7.216;2023-02-28T11:56:44;4.18;;;2.47;;
65835;SDS011;52595;51.608;7.216;2023-02-28T12:07:56;5.55;;;2.70;;
65835;SDS011;52595;51.608;7.216;2023-02-28T12:10:30;4.47;;;2.72;;
65835;SDS011;52595;51.608;7.216;2023-02-28T12:26:53;4.00;;;2.35;;
65835;SDS011;52595;51.608;7.216;2023-02-28T12:29:29;6.28;;;2.80;;
65835;SDS011;52595;51.608;7.216;2023-02-28T12:34:48;5.13;;;2.50;;
65835;SDS011;52595;51.608;7.216;2023-02-28T12:38:01;5.18;;;2.70;;
65835;SDS011;52595;51.608;7.216;2023-02-28T12:40:11;3.17;;;2.50;;
65835;SDS011;52595;51.608;7.216;2023-02-28T12:42:48;4.55;;;2.70;;
65835;SDS011;52595;51.608;7.216;2023-02-28T12:45:18;4.10;;;2.50;;
65835;SDS011;52595;51.608;7.216;2023-02-28T12:47:48;4.45;;;2.50;;
65835;SDS011;52595;51.608;7.216;2023-02-28T12:50:17;3.25;;;2.15;;
65835;SDS011;52595;51.608;7.216;2023-02-28T12:58:05;2.90;;;2.00;;
65835;SDS011;52595;51.608;7.216;2023-02-28T13:00:39;2.80;;;2.20;;
65835;SDS011;52595;51.608;7.216;2023-02-28T13:03:43;4.90;;;2.50;;
65835;SDS011;52595;51.608;7.216;2023-02-28T13:06:24;5.03;;;2.60;;
65835;SDS011;52595;51.608;7.216;2023-02-28T13:09:09;4.40;;;2.20;;
65835;SDS011;52595;51.608;7.216;2023-02-28T13:11:44;3.70;;;2.30;;
65835;SDS011;52595;51.608;7.216;2023-02-28T13:14:22;3.00;;;2.20;;
65835;SDS011;52595;51.608;7.216;2023-02-28T13:22:19;3.58;;;2.38;;
65835;SDS011;52595;51.608;7.216;2023-02-28T13:29:58;4.00;;;2.67;;
65835;SDS011;52595;51.608;7.216;2023-02-28T13:32:33;5.55;;;3.00;;
65835;SDS011;52595;51.608;7.216;2023-02-28T13:39:58;3.58;;;2.80;;
65835;SDS011;52595;51.608;7.216;2023-02-28T13:47:54;5.93;;;3.00;;
65835;SDS011;52595;51.608;7.216;2023-02-28T13:55:41;4.40;;;2.58;;
65835;SDS011;52595;51.608;7.216;2023-02-28T13:58:48;6.03;;;3.00;;
65835;SDS011;52595;51.608;7.216;2023-02-28T14:01:47;4.68;;;2.97;;
65835;SDS011;52595;51.608;7.216;2023-02-28T14:07:01;4.80;;;2.72;;
65835;SDS011;52595;51.608;7.216;2023-02-28T14:09:29;5.75;;;3.50;;
65835;SDS011;52595;51.608;7.216;2023-02-28T14:15:17;4.93;;;3.15;;
65835;SDS011;52595;51.608;7.216;2023-02-28T14:18:16;3.90;;;2.90;;
65835;SDS011;52595;51.608;7.216;2023-02-28T14:20:45;4.43;;;3.20;;
65835;SDS011;52595;51.608;7.216;2023-02-28T14:28:44;5.15;;;3.50;;
65835;SDS011;52595;51.608;7.216;2023-02-28T14:37:02;7.63;;;3.10;;
65835;SDS011;52595;51.608;7.216;2023-02-28T14:39:28;4.93;;;2.83;;
65835;SDS011;52595;51.608;7.216;2023-02-28T14:41:56;4.60;;;3.00;;
65835;SDS011;52595;51.608;7.216;2023-02-28T14:44:27;4.85;;;2.92;;
65835;SDS011;52595;51.608;7.216;2023-02-28T14:46:56;4.32;;;3.00;;
65835;SDS011;52595;51.608;7.216;2023-02-28T14:54:35;6.82;;;2.95;;
65835;SDS011;52595;51.608;7.216;2023-02-28T14:57:01;4.82;;;3.08;;
65835;SDS011;52595;51.608;7.216;2023-02-28T14:59:29;5.15;;;3.05;;
65835;SDS011;52595;51.608;7.216;2023-02-28T15:02:16;5.65;;;3.00;;
65835;SDS011;52595;51.608;7.216;2023-02-28T15:04:42;5.97;;;2.80;;
65835;SDS011;52595;51.608;7.216;2023-02-28T15:07:09;4.82;;;2.83;;
65835;SDS011;52595;51.608;7.216;2023-02-28T15:09:40;6.38;;;3.10;;
65835;SDS011;52595;51.608;7.216;2023-02-28T15:12:06;5.50;;;3.00;;
65835;SDS011;52595;51.608;7.216;2023-02-28T15:14:32;5.43;;;2.90;;
65835;SDS011;52595;51.608;7.216;2023-02-28T15:17:05;5.05;;;2.90;;
65835;SDS011;52595;51.608;7.216;2023-02-28T15:19:34;4.80;;;3.08;;
65835;SDS011;52595;51.608;7.216;2023-02-28T15:22:06;6.07;;;3.40;;
65835;SDS011;52595;51.608;7.216;2023-02-28T15:24:38;4.90;;;3.10;;
65835;SDS011;52595;51.608;7.216;2023-02-28T15:27:09;5.63;;;3.38;;
65835;SDS011;52595;51.608;7.216;2023-02-28T15:30:24;6.95;;;3.28;;
65835;SDS011;52595;51.608;7.216;2023-02-28T15:32:36;4.82;;;3.22;;
65835;SDS011;52595;51.608;7.216;2023-02-28T15:38:35;6.97;;;3.45;;
65835;SDS011;52595;51.608;7.216;2023-02-28T15:40:50;5.40;;;3.17;;
65835;SDS011;52595;51.608;7.216;2023-02-28T15:43:28;4.38;;;2.95;;
65835;SDS011;52595;51.608;7.216;2023-02-28T15:45:59;5.43;;;3.03;;
65835;SDS011;52595;51.608;7.216;2023-02-28T15:48:33;6.13;;;3.15;;
65835;SDS011;52595;51.608;7.216;2023-02-28T15:51:20;4.55;;;3.10;;
65835;SDS011;52595;51.608;7.216;2023-02-28T15:53:57;4.72;;;3.10;;
65835;SDS011;52595;51.608;7.216;2023-02-28T15:56:29;4.47;;;2.95;;
65835;SDS011;52595;51.608;7.216;2023-02-28T15:58:58;5.93;;;3.33;;
65835;SDS011;52595;51.608;7.216;2023-02-28T16:01:29;4.95;;;2.95;;
65835;SDS011;52595;51.608;7.216;2023-02-28T16:03:59;5.32;;;3.30;;
65835;SDS011;52595;51.608;7.216;2023-02-28T16:09:01;5.13;;;2.88;;
65835;SDS011;52595;51.608;7.216;2023-02-28T16:11:28;6.53;;;3.58;;
65835;SDS011;52595;51.608;7.216;2023-02-28T16:13:55;5.13;;;3.13;;
65835;SDS011;52595;51.608;7.216;2023-02-28T16:16:22;8.02;;;3.40;;
65835;SDS011;52595;51.608;7.216;2023-02-28T16:18:49;6.60;;;3.30;;
65835;SDS011;52595;51.608;7.216;2023-02-28T16:21:15;6.30;;;3.47;;
65835;SDS011;52595;51.608;7.216;2023-02-28T16:23:41;5.90;;;3.30;;
65835;SDS011;52595;51.608;7.216;2023-02-28T16:26:06;7.05;;;3.40;;
65835;SDS011;52595;51.608;7.216;2023-02-28T16:28:34;5.35;;;3.28;;
65835;SDS011;52595;51.608;7.216;2023-02-28T16:31:01;6.07;;;3.47;;
65835;SDS011;52595;51.608;7.216;2023-02-28T16:33:29;5.60;;;3.22;;
65835;SDS011;52595;51.608;7.216;2023-02-28T16:35:56;5.88;;;3.40;;
65835;SDS011;52595;51.608;7.216;2023-02-28T16:38:22;5.35;;;3.15;;
65835;SDS011;52595;51.608;7.216;2023-02-28T16:40:49;5.45;;;3.15;;
65835;SDS011;52595;51.608;7.216;2023-02-28T16:43:17;6.95;;;3.83;;
65835;SDS011;52595;51.608;7.216;2023-02-28T16:45:46;8.30;;;3.63;;
65835;SDS011;52595;51.608;7.216;2023-02-28T16:48:12;5.32;;;3.38;;
65835;SDS011;52595;51.608;7.216;2023-02-28T16:50:39;6.43;;;3.58;;
65835;SDS011;52595;51.608;7.216;2023-02-28T16:53:05;6.43;;;3.50;;
65835;SDS011;52595;51.608;7.216;2023-02-28T16:55:30;6.07;;;3.20;;
65835;SDS011;52595;51.608;7.216;2023-02-28T16:57:57;7.25;;;3.50;;
65835;SDS011;52595;51.608;7.216;2023-02-28T17:00:24;5.93;;;3.50;;
65835;SDS011;52595;51.608;7.216;2023-02-28T17:02:52;7.45;;;3.53;;
65835;SDS011;52595;51.608;7.216;2023-02-28T17:05:18;6.05;;;3.35;;
65835;SDS011;52595;51.608;7.216;2023-02-28T17:07:44;6.30;;;3.40;;
65835;SDS011;52595;51.608;7.216;2023-02-28T17:10:12;6.03;;;3.47;;
65835;SDS011;52595;51.608;7.216;2023-02-28T17:12:46;6.00;;;3.22;;
65835;SDS011;52595;51.608;7.216;2023-02-28T17:15:12;7.35;;;3.58;;
65835;SDS011;52595;51.608;7.216;2023-02-28T17:17:39;5.97;;;3.45;;
65835;SDS011;52595;51.608;7.216;2023-02-28T17:20:05;6.57;;;3.47;;
65835;SDS011;52595;51.608;7.216;2023-02-28T17:22:36;5.85;;;3.58;;
65835;SDS011;52595;51.608;7.216;2023-02-28T17:25:01;5.93;;;3.70;;
65835;SDS011;52595;51.608;7.216;2023-02-28T17:27:27;6.10;;;3.50;;
65835;SDS011;52595;51.608;7.216;2023-02-28T17:29:52;9.77;;;3.80;;
65835;SDS011;52595;51.608;7.216;2023-02-28T17:32:17;6.95;;;3.83;;
65835;SDS011;52595;51.608;7.216;2023-02-28T17:34:44;6.13;;;3.70;;
65835;SDS011;52595;51.608;7.216;2023-02-28T17:37:10;6.63;;;4.43;;
65835;SDS011;52595;51.608;7.216;2023-02-28T17:39:36;5.85;;;3.50;;
65835;SDS011;52595;51.608;7.216;2023-02-28T17:42:01;6.45;;;3.75;;
65835;SDS011;52595;51.608;7.216;2023-02-28T17:44:27;5.32;;;3.28;;
65835;SDS011;52595;51.608;7.216;2023-02-28T17:46:53;6.20;;;3.60;;
65835;SDS011;52595;51.608;7.216;2023-02-28T17:49:20;6.93;;;3.60;;
65835;SDS011;52595;51.608;7.216;2023-02-28T17:51:45;7.57;;;3.90;;
65835;SDS011;52595;51.608;7.216;2023-02-28T17:54:12;8.07;;;3.97;;
65835;SDS011;52595;51.608;7.216;2023-02-28T17:56:38;7.32;;;4.20;;
65835;SDS011;52595;51.608;7.216;2023-02-28T17:59:04;7.40;;;4.05;;
65835;SDS011;52595;51.608;7.216;2023-02-28T18:01:29;6.32;;;3.85;;
65835;SDS011;52595;51.608;7.216;2023-02-28T18:03:55;8.50;;;4.15;;
65835;SDS011;52595;51.608;7.216;2023-02-28T18:06:21;7.60;;;4.15;;